Time;durP1;ratioP1;P1;durP2;ratioP2;P2;SDS_P1;SDS_P2;PMS_P1;PMS_P2;Temp;Humidity;BMP_temperature;BMP_pressure;BME280_temperature;BME280_humidity;BME280_pressure;Samples;Min_cycle;Max_cycle;Signal;HPM_P1;HPM_P2
2023/07/08 00:00:07;;;;;;;7.35;5.60;;;17.20;99.90;;;;;;5097430;27;20556;-40
2023/07/08 00:02:33;;;;;;;6.72;6.05;;;17.10;99.90;;;;;;5097869;27;20732;-39
2023/07/08 00:04:59;;;;;;;10.75;6.10;;;17.10;99.90;;;;;;5116204;27;20070;-38
2023/07/08 00:07:24;;;;;;;7.55;5.95;;;17.10;99.90;;;;;;5116044;27;20135;-41
2023/07/08 00:09:50;;;;;;;10.80;6.10;;;17.10;99.90;;;;;;5115608;27;20043;-41
2023/07/08 00:12:15;;;;;;;8.63;5.55;;;17.00;99.90;;;;;;5115723;27;20424;-39
2023/07/08 00:14:41;;;;;;;10.68;5.82;;;17.00;99.90;;;;;;5115699;27;20405;-39
2023/07/08 00:17:12;;;;;;;8.75;6.07;;;17.00;99.90;;;;;;5115685;27;20035;-40
2023/07/08 00:19:38;;;;;;;7.35;5.50;;;17.00;99.90;;;;;;5115510;27;20259;-40
2023/07/08 00:22:14;;;;;;;9.05;5.80;;;16.90;99.90;;;;;;5096728;27;20143;-40
2023/07/08 00:24:42;;;;;;;7.97;5.82;;;16.90;99.90;;;;;;5115327;27;20054;-40
2023/07/08 00:27:13;;;;;;;8.68;5.43;;;16.90;99.90;;;;;;5115276;27;20494;-39
2023/07/08 00:29:38;;;;;;;11.57;5.68;;;16.90;99.90;;;;;;5114544;27;20099;-40
2023/07/08 00:32:13;;;;;;;9.38;5.90;;;16.90;99.90;;;;;;5116029;27;20042;-40
2023/07/08 00:34:39;;;;;;;9.02;6.07;;;16.80;99.90;;;;;;5108046;27;20647;-39
2023/07/08 00:37:05;;;;;;;8.40;5.68;;;16.80;99.90;;;;;;5112995;27;20397;-40
2023/07/08 00:39:32;;;;;;;8.23;5.97;;;16.80;99.90;;;;;;5110878;27;20481;-40
2023/07/08 00:42:00;;;;;;;11.13;5.97;;;16.70;99.90;;;;;;5115649;27;20035;-39
2023/07/08 00:44:26;;;;;;;8.25;5.97;;;16.70;99.90;;;;;;5101291;27;20048;-40
2023/07/08 00:47:09;;;;;;;11.57;5.60;;;16.70;99.90;;;;;;5115619;27;20168;-40
2023/07/08 00:49:47;;;;;;;9.40;5.72;;;16.70;99.90;;;;;;5078450;28;20057;-39
2023/07/08 00:52:27;;;;;;;8.00;5.28;;;16.70;99.90;;;;;;5115561;27;20047;-40
2023/07/08 00:55:05;;;;;;;10.50;6.55;;;16.60;99.90;;;;;;5115699;27;20489;-40
2023/07/08 00:57:35;;;;;;;7.80;6.00;;;16.60;99.90;;;;;;5115386;27;20087;-40
2023/07/08 01:00:11;;;;;;;9.50;5.95;;;16.60;99.90;;;;;;5116058;27;20043;-40
2023/07/08 01:02:44;;;;;;;8.45;6.57;;;16.60;99.90;;;;;;5115882;27;20485;-39
2023/07/08 01:05:30;;;;;;;9.32;6.55;;;16.60;99.90;;;;;;5096189;27;20094;-39
2023/07/08 01:08:01;;;;;;;7.43;5.28;;;16.60;99.90;;;;;;5096166;28;20055;-42
2023/07/08 01:10:36;;;;;;;8.82;5.43;;;16.50;99.90;;;;;;5095754;28;20059;-39
2023/07/08 01:13:08;;;;;;;7.25;5.80;;;16.50;99.90;;;;;;5116502;27;20043;-40
2023/07/08 01:15:40;;;;;;;8.88;6.50;;;16.50;99.90;;;;;;5119474;27;20051;-39
2023/07/08 01:18:08;;;;;;;9.10;5.63;;;16.50;99.90;;;;;;5100743;27;20043;-39
2023/07/08 01:20:34;;;;;;;8.35;6.55;;;16.50;99.90;;;;;;5119313;27;20086;-39
2023/07/08 01:23:00;;;;;;;7.18;5.70;;;16.40;99.90;;;;;;5119261;27;20122;-40
2023/07/08 01:25:26;;;;;;;8.10;5.90;;;16.40;99.90;;;;;;5119368;27;20097;-40
2023/07/08 01:27:55;;;;;;;11.57;6.47;;;16.40;99.90;;;;;;5100268;27;20054;-39
2023/07/08 01:30:21;;;;;;;8.70;6.10;;;16.40;99.90;;;;;;5119280;27;20154;-39
2023/07/08 01:32:55;;;;;;;7.63;5.93;;;16.40;99.90;;;;;;5118536;27;20784;-39
2023/07/08 01:35:21;;;;;;;8.68;6.07;;;16.30;99.90;;;;;;5110354;27;20058;-40
2023/07/08 01:37:53;;;;;;;12.13;6.30;;;16.30;99.90;;;;;;5114943;27;20039;-40
2023/07/08 01:40:19;;;;;;;7.05;5.68;;;16.30;99.90;;;;;;5119011;27;20035;-39
2023/07/08 01:42:45;;;;;;;6.78;6.05;;;16.30;99.90;;;;;;5116026;27;20076;-39
2023/07/08 01:45:16;;;;;;;11.20;6.43;;;16.30;99.90;;;;;;5097761;27;20042;-41
2023/07/08 01:47:46;;;;;;;7.68;6.65;;;16.20;99.90;;;;;;5139062;27;20039;-42
2023/07/08 01:50:12;;;;;;;9.65;6.32;;;16.20;99.90;;;;;;5138370;27;20053;-39
2023/07/08 01:52:38;;;;;;;12.30;6.47;;;16.10;99.90;;;;;;5121499;27;20491;-39
2023/07/08 01:55:04;;;;;;;7.22;6.20;;;16.10;99.90;;;;;;5117750;27;20043;-40
2023/07/08 01:57:30;;;;;;;8.80;6.35;;;16.10;99.90;;;;;;5118042;27;20039;-39
2023/07/08 01:59:55;;;;;;;10.95;6.82;;;16.10;99.90;;;;;;5099014;27;20035;-41
2023/07/08 02:02:24;;;;;;;8.82;6.68;;;16.10;99.90;;;;;;5118630;27;20509;-40
2023/07/08 02:04:49;;;;;;;8.57;6.80;;;16.10;99.90;;;;;;5118363;27;20055;-39
2023/07/08 02:07:15;;;;;;;10.18;7.32;;;16.00;99.90;;;;;;5117716;27;20701;-39
2023/07/08 02:09:41;;;;;;;8.60;6.82;;;16.00;99.90;;;;;;5117397;27;20043;-39
2023/07/08 02:12:07;;;;;;;8.30;7.22;;;16.00;99.90;;;;;;5117584;27;20050;-40
2023/07/08 02:14:32;;;;;;;9.55;7.07;;;15.90;99.90;;;;;;5117168;27;20388;-39
2023/07/08 02:16:58;;;;;;;11.82;7.35;;;15.90;99.90;;;;;;5118013;27;20104;-39
2023/07/08 02:19:24;;;;;;;9.60;7.65;;;15.90;99.90;;;;;;5117844;27;20043;-40
2023/07/08 02:21:51;;;;;;;11.77;7.28;;;15.90;99.90;;;;;;5118830;27;20039;-41
2023/07/08 02:24:17;;;;;;;10.30;7.18;;;15.80;99.90;;;;;;5081984;27;20039;-39
2023/07/08 02:26:43;;;;;;;8.80;6.63;;;15.80;99.90;;;;;;5117621;27;20035;-39
2023/07/08 02:29:09;;;;;;;14.43;6.85;;;15.80;99.90;;;;;;5116573;27;20180;-41
2023/07/08 02:31:34;;;;;;;8.73;6.68;;;15.70;99.90;;;;;;5117363;27;20039;-40
2023/07/08 02:34:02;;;;;;;10.02;6.53;;;15.70;99.90;;;;;;5115326;27;20440;-40
2023/07/08 02:36:28;;;;;;;9.20;7.20;;;15.70;99.90;;;;;;5110225;27;20051;-40
2023/07/08 02:38:53;;;;;;;9.90;7.47;;;15.70;99.90;;;;;;5113145;27;20433;-39
2023/07/08 02:41:19;;;;;;;10.35;7.68;;;15.70;99.90;;;;;;5117626;27;20146;-39
2023/07/08 02:43:45;;;;;;;10.73;7.82;;;15.70;99.90;;;;;;5106261;27;20153;-39
2023/07/08 02:46:11;;;;;;;8.68;7.28;;;15.70;99.90;;;;;;5130685;27;20043;-39
2023/07/08 02:48:36;;;;;;;16.27;8.32;;;15.70;99.90;;;;;;5137317;27;20508;-39
2023/07/08 02:51:04;;;;;;;9.65;6.75;;;15.70;99.90;;;;;;5137831;27;20049;-39
2023/07/08 02:53:30;;;;;;;9.63;7.22;;;15.70;99.90;;;;;;5138359;27;20058;-39
2023/07/08 02:55:55;;;;;;;12.60;7.63;;;15.70;99.90;;;;;;5138188;27;20551;-39
2023/07/08 02:58:21;;;;;;;10.52;7.07;;;15.70;99.90;;;;;;5119990;27;20059;-40
2023/07/08 03:01:00;;;;;;;10.73;7.50;;;15.70;99.90;;;;;;5123799;27;20093;-40
2023/07/08 03:03:30;;;;;;;9.13;7.18;;;15.70;99.90;;;;;;5137748;27;20103;-40
2023/07/08 03:05:58;;;;;;;9.90;7.45;;;15.70;99.90;;;;;;5137679;27;20450;-39
2023/07/08 03:08:25;;;;;;;10.60;7.72;;;15.70;99.90;;;;;;5137511;27;20819;-39
2023/07/08 03:10:56;;;;;;;8.75;7.85;;;15.80;99.90;;;;;;5137928;27;20069;-39
2023/07/08 03:13:23;;;;;;;11.50;7.45;;;15.80;99.90;;;;;;5122585;27;20095;-41
2023/07/08 03:15:49;;;;;;;10.75;8.02;;;15.80;99.90;;;;;;5136987;27;20035;-39
2023/07/08 03:18:15;;;;;;;11.93;8.52;;;15.80;99.90;;;;;;5135762;27;20080;-40
2023/07/08 03:20:44;;;;;;;11.70;7.80;;;15.80;99.90;;;;;;5136780;27;20051;-39
2023/07/08 03:23:11;;;;;;;12.25;7.80;;;15.80;99.90;;;;;;5135850;27;20047;-40
2023/07/08 03:25:37;;;;;;;9.52;7.75;;;15.80;99.90;;;;;;5136354;27;20528;-39
2023/07/08 03:28:05;;;;;;;11.10;7.85;;;15.80;99.90;;;;;;5119680;27;20050;-40
2023/07/08 03:30:32;;;;;;;9.35;7.90;;;15.80;99.90;;;;;;5115294;27;20043;-39
2023/07/08 03:32:58;;;;;;;8.65;7.70;;;15.80;99.90;;;;;;5115284;27;20225;-40
2023/07/08 03:35:24;;;;;;;9.75;8.07;;;15.70;99.90;;;;;;5105125;27;20385;-39
2023/07/08 03:37:51;;;;;;;13.30;8.52;;;15.80;99.90;;;;;;5111884;27;20464;-40
2023/07/08 03:40:16;;;;;;;9.50;8.00;;;15.70;99.90;;;;;;5115095;27;20043;-40
2023/07/08 03:42:42;;;;;;;11.25;8.23;;;15.80;99.90;;;;;;5114463;27;20078;-40
2023/07/08 03:45:08;;;;;;;9.93;7.57;;;15.70;99.90;;;;;;5103002;27;20039;-40
2023/07/08 03:47:34;;;;;;;8.88;7.30;;;15.80;99.90;;;;;;5115461;27;20051;-41
2023/07/08 03:50:00;;;;;;;10.20;8.30;;;15.80;99.90;;;;;;5096226;28;20054;-40
2023/07/08 03:52:25;;;;;;;8.35;7.55;;;15.80;99.90;;;;;;5115442;27;20429;-40
2023/07/08 03:54:51;;;;;;;10.30;8.20;;;15.90;99.90;;;;;;5115437;27;20122;-40
2023/07/08 03:57:16;;;;;;;10.45;7.78;;;16.10;99.90;;;;;;5115212;27;20380;-39
2023/07/08 03:59:42;;;;;;;12.13;8.15;;;16.70;99.90;;;;;;5114938;27;20174;-40
2023/07/08 04:02:11;;;;;;;8.93;7.95;;;17.20;99.90;;;;;;5114289;27;20043;-39
2023/07/08 04:04:37;;;;;;;8.52;7.15;;;17.70;99.90;;;;;;5114779;27;20389;-41
2023/07/08 04:07:06;;;;;;;9.82;7.40;;;18.20;99.90;;;;;;5096159;27;20042;-40
2023/07/08 04:09:35;;;;;;;8.60;7.03;;;18.60;99.90;;;;;;5096234;28;20385;-42
2023/07/08 04:12:01;;;;;;;12.15;7.32;;;19.10;99.90;;;;;;5076316;27;1093236;-40
2023/07/08 04:14:26;;;;;;;8.85;7.25;;;19.40;99.90;;;;;;5114904;27;20556;-41
2023/07/08 04:16:57;;;;;;;9.32;7.30;;;19.80;99.90;;;;;;5116186;27;20047;-41
2023/07/08 04:19:23;;;;;;;7.07;6.32;;;20.10;99.90;;;;;;5097208;27;20047;-41
2023/07/08 04:21:50;;;;;;;7.68;6.90;;;20.50;99.90;;;;;;5119773;27;20463;-41
2023/07/08 04:24:17;;;;;;;8.80;6.90;;;20.80;99.90;;;;;;5135695;27;20158;-41
2023/07/08 04:26:46;;;;;;;8.77;7.50;;;21.10;99.90;;;;;;5131802;27;20054;-41
2023/07/08 04:29:13;;;;;;;9.75;6.78;;;21.20;99.90;;;;;;5114580;27;20488;-41
2023/07/08 04:31:39;;;;;;;8.75;6.88;;;21.50;99.90;;;;;;5114693;27;20051;-43
2023/07/08 04:34:06;;;;;;;9.75;6.70;;;21.70;99.90;;;;;;5112554;27;20115;-41
2023/07/08 04:36:33;;;;;;;7.72;6.38;;;22.00;99.90;;;;;;5089830;28;20050;-41
2023/07/08 04:38:59;;;;;;;7.50;6.40;;;22.20;99.90;;;;;;5111102;27;20042;-42
2023/07/08 04:41:26;;;;;;;14.85;6.85;;;22.60;99.90;;;;;;5115067;27;20542;-40
2023/07/08 04:43:53;;;;;;;7.72;6.35;;;22.80;99.90;;;;;;5103582;27;20176;-41
2023/07/08 04:46:34;;;;;;;8.75;6.32;;;23.00;99.90;;;;;;5112809;27;20043;-41
2023/07/08 04:49:01;;;;;;;7.82;6.60;;;23.30;99.50;;;;;;5114135;27;20380;-41
2023/07/08 04:51:27;;;;;;;9.68;6.40;;;23.60;99.60;;;;;;5096712;28;20154;-42
2023/07/08 04:53:52;;;;;;;9.80;6.20;;;23.90;99.40;;;;;;5096359;27;20723;-43
2023/07/08 04:56:18;;;;;;;7.25;6.55;;;24.10;99.10;;;;;;5115438;27;20050;-41
2023/07/08 04:58:44;;;;;;;8.27;6.55;;;24.40;97.70;;;;;;5115192;27;20050;-42
2023/07/08 05:01:10;;;;;;;8.60;5.68;;;25.10;98.40;;;;;;5115381;27;20645;-41
2023/07/08 05:03:35;;;;;;;6.78;5.88;;;25.40;97.70;;;;;;5114217;27;20426;-41
2023/07/08 05:06:01;;;;;;;7.72;5.88;;;25.70;97.10;;;;;;5115896;27;20126;-42
2023/07/08 05:08:27;;;;;;;6.55;5.53;;;26.10;96.70;;;;;;5114893;27;20066;-41
2023/07/08 05:10:52;;;;;;;6.65;5.97;;;26.20;96.20;;;;;;5115659;27;20043;-41
2023/07/08 05:13:18;;;;;;;6.85;5.50;;;26.70;95.60;;;;;;5114952;27;20043;-42
2023/07/08 05:15:44;;;;;;;7.50;6.03;;;27.10;94.80;;;;;;5115165;27;20536;-42
2023/07/08 05:18:09;;;;;;;7.15;5.65;;;27.30;95.10;;;;;;5113345;27;20594;-41
2023/07/08 05:20:36;;;;;;;7.57;5.35;;;27.60;94.50;;;;;;5115069;27;20453;-42
2023/07/08 05:23:02;;;;;;;7.25;5.68;;;27.90;94.20;;;;;;5114610;27;20501;-41
2023/07/08 05:25:31;;;;;;;7.50;5.72;;;28.30;93.20;;;;;;5115455;27;20091;-41
2023/07/08 05:27:57;;;;;;;6.57;5.70;;;28.00;93.00;;;;;;5114689;27;20077;-42
2023/07/08 05:30:23;;;;;;;7.93;5.32;;;28.10;93.10;;;;;;5096260;28;20564;-42
2023/07/08 05:32:48;;;;;;;8.25;5.70;;;28.30;92.90;;;;;;5113887;27;20124;-41
2023/07/08 05:35:14;;;;;;;10.43;5.50;;;28.60;92.80;;;;;;5105836;27;20052;-44
2023/07/08 05:37:40;;;;;;;5.88;5.07;;;28.60;92.50;;;;;;5110826;27;20046;-41
2023/07/08 05:40:07;;;;;;;7.25;5.80;;;28.70;92.20;;;;;;5114587;27;20481;-44
2023/07/08 05:42:33;;;;;;;9.15;5.43;;;28.90;91.10;;;;;;5113452;27;20070;-42
2023/07/08 05:44:59;;;;;;;9.57;5.47;;;28.90;91.60;;;;;;5083839;28;20039;-42
2023/07/08 05:47:25;;;;;;;7.68;5.38;;;29.30;91.20;;;;;;5103599;27;20038;-43
2023/07/08 05:49:50;;;;;;;5.43;4.68;;;29.60;90.90;;;;;;5117082;27;20162;-41
2023/07/08 05:52:16;;;;;;;6.57;5.32;;;29.80;90.80;;;;;;5117080;27;20043;-43
2023/07/08 05:54:42;;;;;;;6.30;5.05;;;30.10;90.30;;;;;;5135648;27;20120;-41
2023/07/08 05:57:10;;;;;;;9.07;5.65;;;30.10;90.10;;;;;;5116559;27;20459;-41
2023/07/08 05:59:36;;;;;;;5.72;5.13;;;30.00;89.80;;;;;;5138373;27;20037;-42
2023/07/08 06:02:06;;;;;;;8.80;5.40;;;30.00;88.90;;;;;;5139036;27;20481;-43
2023/07/08 06:04:32;;;;;;;6.55;5.25;;;29.90;88.20;;;;;;5139318;27;20221;-45
2023/07/08 06:06:57;;;;;;;6.10;4.43;;;30.30;89.00;;;;;;5140402;27;20432;-41
2023/07/08 06:09:23;;;;;;;5.18;4.65;;;30.40;87.80;;;;;;5139321;27;20041;-44
2023/07/08 06:11:48;;;;;;;5.20;4.47;;;30.70;87.30;;;;;;5138093;27;20035;-42
2023/07/08 06:14:14;;;;;;;7.03;5.00;;;30.90;86.70;;;;;;5126195;27;20057;-42
2023/07/08 06:16:40;;;;;;;7.18;4.78;;;31.20;86.90;;;;;;5138778;27;20039;-42
2023/07/08 06:19:06;;;;;;;9.98;4.93;;;31.30;85.80;;;;;;5138402;27;20142;-42
2023/07/08 06:21:31;;;;;;;6.75;4.75;;;31.80;86.10;;;;;;5139109;27;20436;-45
2023/07/08 06:23:57;;;;;;;6.13;4.60;;;32.00;85.40;;;;;;5138438;27;20039;-43
2023/07/08 06:26:23;;;;;;;8.18;5.40;;;32.00;84.80;;;;;;5138474;27;20043;-42
2023/07/08 06:28:49;;;;;;;4.90;4.32;;;32.30;83.10;;;;;;5119405;27;20039;-41
2023/07/08 06:31:15;;;;;;;9.00;5.00;;;31.80;82.50;;;;;;5137529;27;20054;-42
2023/07/08 06:33:41;;;;;;;7.82;5.40;;;31.40;82.90;;;;;;5138318;27;20035;-43
2023/07/08 06:36:07;;;;;;;9.80;5.90;;;31.30;82.20;;;;;;5098804;27;20059;-44
2023/07/08 06:38:33;;;;;;;4.95;4.35;;;31.30;82.50;;;;;;5099099;27;20040;-42
2023/07/08 06:40:59;;;;;;;7.50;4.80;;;31.60;83.20;;;;;;5124351;27;20043;-41
2023/07/08 06:43:25;;;;;;;5.13;4.60;;;32.10;83.10;;;;;;5129884;27;20126;-45
2023/07/08 06:45:50;;;;;;;5.97;4.20;;;32.20;82.50;;;;;;5085017;27;20557;-42
2023/07/08 06:48:16;;;;;;;7.68;4.97;;;32.20;81.70;;;;;;5116368;27;20070;-42
2023/07/08 06:50:45;;;;;;;7.45;4.90;;;32.50;82.30;;;;;;5120497;27;20039;-42
2023/07/08 06:53:11;;;;;;;6.10;4.50;;;32.30;81.80;;;;;;5104824;27;20096;-42
2023/07/08 06:55:36;;;;;;;7.18;5.07;;;32.10;82.20;;;;;;5100610;27;20044;-44
2023/07/08 06:58:02;;;;;;;5.93;4.75;;;32.40;82.40;;;;;;5115986;27;20043;-45
2023/07/08 07:00:28;;;;;;;5.47;4.30;;;32.60;81.80;;;;;;5115541;27;20047;-42
2023/07/08 07:02:53;;;;;;;8.05;4.75;;;32.50;81.40;;;;;;5110579;27;20050;-42
2023/07/08 07:05:19;;;;;;;5.63;4.97;;;32.20;81.10;;;;;;5098142;27;20123;-42
2023/07/08 07:07:45;;;;;;;7.00;4.88;;;32.10;81.70;;;;;;5113586;27;20075;-42
2023/07/08 07:10:10;;;;;;;4.90;4.30;;;32.30;81.50;;;;;;5086820;27;20397;-42
2023/07/08 07:12:36;;;;;;;6.70;4.38;;;32.50;80.60;;;;;;5122365;27;20058;-45
2023/07/08 07:15:03;;;;;;;6.47;4.28;;;32.40;81.40;;;;;;5091966;27;20079;-42
2023/07/08 07:17:29;;;;;;;4.85;4.25;;;32.10;79.70;;;;;;5116161;27;20620;-42
2023/07/08 07:19:54;;;;;;;5.97;4.43;;;32.50;80.90;;;;;;5108165;27;20039;-43
2023/07/08 07:22:21;;;;;;;4.97;4.28;;;32.60;81.30;;;;;;5116621;27;20429;-42
2023/07/08 07:24:47;;;;;;;5.40;4.50;;;32.50;80.50;;;;;;5088789;27;20040;-42
2023/07/08 07:27:12;;;;;;;4.50;4.05;;;32.00;80.90;;;;;;5076026;27;20082;-42
2023/07/08 07:29:45;;;;;;;6.85;4.45;;;31.40;81.60;;;;;;5097639;27;20039;-44
2023/07/08 07:32:11;;;;;;;9.77;4.70;;;30.50;82.40;;;;;;5102512;27;20538;-43
2023/07/08 07:34:38;;;;;;;5.85;4.03;;;29.60;84.10;;;;;;5075260;27;20040;-42
2023/07/08 07:37:04;;;;;;;6.72;4.95;;;28.90;86.20;;;;;;5112040;27;20039;-43
2023/07/08 07:39:29;;;;;;;5.30;4.28;;;29.00;87.40;;;;;;5108853;27;20040;-45
2023/07/08 07:41:55;;;;;;;4.70;4.30;;;28.80;88.60;;;;;;5116040;27;20378;-45
2023/07/08 07:44:21;;;;;;;4.40;4.00;;;28.50;89.70;;;;;;5083801;27;20070;-45
2023/07/08 07:46:47;;;;;;;6.18;4.13;;;28.30;89.30;;;;;;5089223;28;20502;-46
2023/07/08 07:49:13;;;;;;;6.30;4.68;;;28.10;89.20;;;;;;5098431;27;20452;-42
2023/07/08 07:51:39;;;;;;;6.13;4.90;;;28.10;90.40;;;;;;5090135;27;20038;-42
2023/07/08 07:54:04;;;;;;;6.50;4.22;;;27.90;90.10;;;;;;5109998;27;20566;-43
2023/07/08 07:56:30;;;;;;;7.97;4.50;;;27.70;90.00;;;;;;5120722;27;20086;-44
2023/07/08 07:58:56;;;;;;;7.40;4.65;;;27.70;90.30;;;;;;5089507;27;20563;-44
2023/07/08 08:01:21;;;;;;;6.88;4.30;;;27.40;90.30;;;;;;5104929;27;20146;-42
2023/07/08 08:03:50;;;;;;;8.73;4.78;;;27.30;90.90;;;;;;5112414;27;20043;-43
2023/07/08 08:06:17;;;;;;;5.30;4.38;;;27.20;91.50;;;;;;5105744;27;20546;-42
2023/07/08 08:08:45;;;;;;;4.68;3.97;;;27.30;91.70;;;;;;5110163;27;20054;-42
2023/07/08 08:11:10;;;;;;;5.57;4.40;;;27.40;91.20;;;;;;5114843;27;20082;-42
2023/07/08 08:13:36;;;;;;;6.70;3.97;;;27.40;91.00;;;;;;5108922;27;20126;-42
2023/07/08 08:16:02;;;;;;;6.43;4.05;;;27.50;91.00;;;;;;5113192;27;20042;-41
2023/07/08 08:18:28;;;;;;;5.55;4.10;;;27.50;91.00;;;;;;5099812;27;20169;-41
2023/07/08 08:20:54;;;;;;;7.07;4.70;;;27.60;91.50;;;;;;5087707;27;20457;-43
2023/07/08 08:23:19;;;;;;;6.70;4.05;;;27.40;91.70;;;;;;5087966;27;20097;-42
2023/07/08 08:25:45;;;;;;;6.93;3.95;;;27.40;92.50;;;;;;5099854;27;20378;-42
2023/07/08 08:28:10;;;;;;;10.20;4.50;;;27.40;91.40;;;;;;5102106;27;20112;-42
2023/07/08 08:30:36;;;;;;;5.32;3.72;;;27.50;91.20;;;;;;5114965;27;20577;-42
2023/07/08 08:33:10;;;;;;;9.20;3.90;;;27.40;91.30;;;;;;5117153;27;20042;-43
2023/07/08 08:35:48;;;;;;;4.47;3.90;;;27.50;91.60;;;;;;5109941;27;20042;-42
2023/07/08 08:38:14;;;;;;;6.82;4.53;;;27.70;91.90;;;;;;5100078;27;20143;-42
2023/07/08 08:40:42;;;;;;;7.28;4.32;;;27.70;91.50;;;;;;5104342;27;20078;-42
2023/07/08 08:43:16;;;;;;;6.07;4.25;;;27.80;91.80;;;;;;5121356;27;20067;-42
2023/07/08 08:46:00;;;;;;;4.93;4.40;;;28.00;92.10;;;;;;5107330;27;20043;-42
2023/07/08 08:48:28;;;;;;;9.73;4.28;;;27.80;91.50;;;;;;5114033;27;20047;-43
2023/07/08 08:50:59;;;;;;;4.32;3.85;;;27.70;91.20;;;;;;5111330;27;20130;-45
2023/07/08 08:53:26;;;;;;;8.85;4.68;;;27.80;91.20;;;;;;5082405;28;20090;-40
2023/07/08 08:56:04;;;;;;;4.93;4.15;;;27.70;91.40;;;;;;5110452;27;20042;-41
2023/07/08 08:58:43;;;;;;;7.95;4.85;;;27.70;91.60;;;;;;5091063;28;20093;-42
2023/07/08 09:01:15;;;;;;;4.97;3.90;;;27.60;91.80;;;;;;5113815;27;20100;-42
2023/07/08 09:03:47;;;;;;;5.28;4.10;;;27.50;91.90;;;;;;5094097;28;20205;-42
2023/07/08 09:06:28;;;;;;;6.45;3.70;;;27.60;92.30;;;;;;5107686;27;20061;-40
2023/07/08 09:08:55;;;;;;;4.90;4.03;;;27.70;92.30;;;;;;5109093;27;20501;-40
2023/07/08 09:11:44;;;;;;;7.05;4.22;;;27.80;91.90;;;;;;5115328;27;20062;-42
2023/07/08 09:14:31;;;;;;;4.75;3.95;;;27.80;91.50;;;;;;5113098;27;20039;-44
2023/07/08 09:17:18;;;;;;;5.57;4.82;;;27.70;92.10;;;;;;5103692;27;20048;-43
2023/07/08 09:20:03;;;;;;;6.40;4.47;;;27.70;92.30;;;;;;5114534;27;20047;-41
2023/07/08 09:22:38;;;;;;;5.45;4.75;;;27.70;91.70;;;;;;5103153;27;20556;-40
2023/07/08 09:25:23;;;;;;;6.53;4.00;;;27.70;91.90;;;;;;5094687;27;20062;-42
2023/07/08 09:27:48;;;;;;;6.05;4.15;;;27.80;92.40;;;;;;5106206;27;20040;-40
2023/07/08 09:30:16;;;;;;;5.13;4.38;;;27.80;92.30;;;;;;5096903;27;20534;-41
2023/07/08 09:32:42;;;;;;;5.45;4.35;;;27.90;91.70;;;;;;5096521;27;20477;-45
2023/07/08 09:35:16;;;;;;;8.73;4.55;;;27.90;91.80;;;;;;5106983;27;20382;-41
2023/07/08 09:37:46;;;;;;;4.55;4.05;;;28.10;92.40;;;;;;5104829;27;20047;-40
2023/07/08 09:40:23;;;;;;;5.72;4.32;;;28.20;92.40;;;;;;5114863;27;20050;-41
2023/07/08 09:42:51;;;;;;;8.15;4.53;;;28.10;92.10;;;;;;5131069;27;20051;-45
2023/07/08 09:45:23;;;;;;;5.32;4.47;;;28.20;92.10;;;;;;5108126;27;20100;-45
2023/07/08 09:47:54;;;;;;;6.65;4.78;;;28.20;91.70;;;;;;5067842;27;20066;-40
2023/07/08 09:50:26;;;;;;;13.23;5.45;;;28.20;91.80;;;;;;5118110;27;20070;-41
2023/07/08 09:52:54;;;;;;;9.07;5.20;;;28.20;92.10;;;;;;5117889;27;20043;-42
2023/07/08 09:55:20;;;;;;;7.22;5.03;;;28.20;92.20;;;;;;5126442;27;20084;-41
2023/07/08 09:57:48;;;;;;;6.85;4.65;;;28.30;93.00;;;;;;5116558;27;20623;-40
2023/07/08 10:00:17;;;;;;;7.32;4.93;;;28.30;92.10;;;;;;5118499;27;20043;-41
2023/07/08 10:02:56;;;;;;;8.35;4.53;;;28.40;92.60;;;;;;5098428;27;20051;-42
2023/07/08 10:05:38;;;;;;;6.45;5.25;;;28.40;92.90;;;;;;5101006;27;20538;-41
2023/07/08 10:08:28;;;;;;;9.05;5.00;;;28.40;92.60;;;;;;5117993;27;20047;-41
2023/07/08 10:11:15;;;;;;;7.18;4.53;;;28.40;93.40;;;;;;5118064;27;20095;-40
2023/07/08 10:13:45;;;;;;;5.75;4.75;;;28.40;93.10;;;;;;5117328;27;20058;-41
2023/07/08 10:16:24;;;;;;;7.65;4.72;;;28.50;92.40;;;;;;5117560;27;20047;-40
2023/07/08 10:18:51;;;;;;;7.63;4.90;;;28.60;92.60;;;;;;5117369;27;20047;-44
2023/07/08 10:22:09;;;;;;;5.85;4.38;;;28.60;92.70;;;;;;5110002;27;20047;-41
2023/07/08 10:25:01;;;;;;;6.53;5.07;;;28.70;92.80;;;;;;5098618;27;20101;-41
2023/07/08 10:27:33;;;;;;;10.90;4.90;;;28.70;92.40;;;;;;5106661;27;20047;-45
2023/07/08 10:30:14;;;;;;;7.97;5.23;;;28.90;92.30;;;;;;5116634;27;20047;-42
2023/07/08 10:32:55;;;;;;;7.07;4.95;;;29.00;92.70;;;;;;5116318;27;20295;-41
2023/07/08 10:35:26;;;;;;;7.65;4.55;;;28.90;92.80;;;;;;5079506;27;20039;-41
2023/07/08 10:38:04;;;;;;;5.72;4.70;;;28.80;92.60;;;;;;5113759;27;20062;-42
2023/07/08 10:40:49;;;;;;;8.32;4.68;;;28.80;92.60;;;;;;5122685;27;20057;-41
2023/07/08 10:43:47;;;;;;;8.63;5.15;;;28.90;92.40;;;;;;5104537;27;20157;-43
2023/07/08 10:46:38;;;;;;;6.88;4.85;;;29.00;92.00;;;;;;5104556;27;20507;-42
2023/07/08 10:49:38;;;;;;;10.05;4.55;;;29.00;92.30;;;;;;5104287;27;20047;-42
2023/07/08 10:52:18;;;;;;;5.95;4.80;;;29.10;92.20;;;;;;5024534;28;20159;-42
2023/07/08 10:55:04;;;;;;;7.47;4.95;;;29.10;92.00;;;;;;5023349;28;20045;-41
2023/07/08 10:57:40;;;;;;;6.63;5.28;;;29.10;91.80;;;;;;5004061;28;20045;-41
2023/07/08 11:00:24;;;;;;;10.75;5.40;;;29.10;91.80;;;;;;5031821;28;20045;-45
2023/07/08 11:03:21;;;;;;;7.47;4.88;;;29.30;92.50;;;;;;5019866;28;20045;-41
2023/07/08 11:05:57;;;;;;;7.97;4.53;;;29.40;92.40;;;;;;5014629;28;20523;-43
2023/07/08 11:08:31;;;;;;;5.43;4.85;;;29.60;92.20;;;;;;5032185;28;20051;-43
2023/07/08 11:11:11;;;;;;;6.32;5.30;;;29.80;92.20;;;;;;5032258;28;20601;-42
2023/07/08 11:13:44;;;;;;;7.43;5.32;;;29.70;91.30;;;;;;5031707;28;20537;-41
2023/07/08 11:16:23;;;;;;;9.25;5.32;;;29.60;91.00;;;;;;5030516;28;20064;-42
2023/07/08 11:19:23;;;;;;;5.40;4.90;;;29.70;91.00;;;;;;5033200;28;20041;-43
2023/07/08 11:21:53;;;;;;;5.28;4.72;;;29.70;91.00;;;;;;4967104;28;20079;-42
2023/07/08 11:24:41;;;;;;;9.23;4.93;;;29.70;90.60;;;;;;4960160;28;20046;-41
2023/07/08 11:27:24;;;;;;;7.72;5.50;;;29.80;91.50;;;;;;4953333;28;20437;-44
2023/07/08 11:30:14;;;;;;;5.60;5.00;;;29.90;91.20;;;;;;5024708;28;20056;-41
2023/07/08 11:32:43;;;;;;;6.65;5.28;;;29.90;90.40;;;;;;5043079;28;20060;-43
2023/07/08 11:35:37;;;;;;;8.93;5.18;;;29.90;91.40;;;;;;5039319;28;20118;-44
2023/07/08 11:38:04;;;;;;;6.60;4.75;;;30.00;91.20;;;;;;5034894;28;20056;-41
2023/07/08 11:40:30;;;;;;;5.80;5.20;;;30.10;91.60;;;;;;5039409;28;20045;-43
2023/07/08 11:43:06;;;;;;;5.45;4.95;;;30.20;92.20;;;;;;5044212;28;20060;-42
2023/07/08 11:45:40;;;;;;;7.72;5.25;;;30.30;92.20;;;;;;5014485;28;20136;-42
2023/07/08 11:48:21;;;;;;;7.03;4.97;;;30.30;91.30;;;;;;5041303;28;20049;-43
2023/07/08 11:50:48;;;;;;;6.93;5.15;;;30.20;90.10;;;;;;5030151;28;20063;-43
2023/07/08 11:53:31;;;;;;;5.97;5.20;;;30.20;90.40;;;;;;5022684;28;20114;-42
2023/07/08 11:56:00;;;;;;;;;;;30.30;90.20;;;;;;5044658;28;20138;-44
2023/07/08 11:58:49;;;;;;;7.82;5.10;;;30.30;90.80;;;;;;5068482;27;19923;-44
2023/07/08 12:01:17;;;;;;;6.00;5.32;;;30.40;90.90;;;;;;5103532;27;20053;-42
2023/07/08 12:04:20;;;;;;;5.70;5.15;;;30.50;90.80;;;;;;5096750;27;20528;-42
2023/07/08 12:07:01;;;;;;;5.90;4.88;;;30.70;91.20;;;;;;5100822;27;20552;-42
2023/07/08 12:10:05;;;;;;;6.78;4.88;;;30.80;90.90;;;;;;5103597;27;20035;-44
2023/07/08 12:12:40;;;;;;;5.45;4.78;;;30.80;91.70;;;;;;5115050;27;20098;-41
2023/07/08 12:15:19;;;;;;;6.65;4.97;;;30.90;91.10;;;;;;5096135;27;20039;-43
2023/07/08 12:17:45;;;;;;;7.70;4.53;;;31.10;88.80;;;;;;5115336;27;20111;-42
2023/07/08 12:20:37;;;;;;;6.22;4.47;;;31.10;86.70;;;;;;5115425;27;20043;-41
2023/07/08 12:23:14;;;;;;;7.85;5.03;;;31.10;84.90;;;;;;5111152;27;20504;-41
2023/07/08 12:25:39;;;;;;;7.68;5.07;;;31.10;89.70;;;;;;5105681;27;20054;-43
2023/07/08 12:28:05;;;;;;;6.57;4.82;;;31.20;85.90;;;;;;5127708;27;20530;-42
2023/07/08 12:30:32;;;;;;;10.50;5.68;;;31.10;85.50;;;;;;5096671;27;20036;-43
2023/07/08 12:33:01;;;;;;;5.53;4.93;;;31.10;84.90;;;;;;5096654;27;20086;-41
2023/07/08 12:35:36;;;;;;;7.60;5.22;;;31.30;88.90;;;;;;5087661;27;20090;-42
2023/07/08 12:38:38;;;;;;;9.15;5.30;;;31.20;87.00;;;;;;5108358;27;20043;-41
2023/07/08 12:41:20;;;;;;;7.87;5.70;;;31.30;87.00;;;;;;5056111;28;20057;-43
2023/07/08 12:43:46;;;;;;;;;;;31.30;82.80;;;;;;5054091;28;20290;-43
2023/07/08 12:46:17;;;;;;;7.45;5.72;;;31.30;86.80;;;;;;5062102;28;20275;-41
2023/07/08 12:48:43;;;;;;;6.38;5.45;;;31.30;82.90;;;;;;5049392;28;20072;-42
2023/07/08 12:51:14;;;;;;;8.55;5.15;;;31.40;84.70;;;;;;5036088;28;20151;-40
2023/07/08 12:53:41;;;;;;;8.77;5.70;;;31.40;84.00;;;;;;5050155;28;20037;-41
2023/07/08 12:56:07;;;;;;;8.43;5.85;;;31.40;84.90;;;;;;5054200;28;20140;-42
2023/07/08 12:58:39;;;;;;;9.38;6.70;;;31.50;84.40;;;;;;5051117;28;20380;-42
2023/07/08 13:01:06;;;;;;;8.10;6.68;;;31.50;84.10;;;;;;5032722;28;20064;-43